createdAt,value
2019-01-24T00:00:07.000Z,29.4
2019-01-24T00:02:07.000Z,29.4
2019-01-24T00:03:07.000Z,29.4
2019-01-24T00:04:07.000Z,29.4
2019-01-24T00:05:07.000Z,29.4
2019-01-24T00:06:07.000Z,29.4
2019-01-24T00:08:07.000Z,29.4
2019-01-24T00:10:07.000Z,29.4
2019-01-24T00:12:07.000Z,29.3
2019-01-24T00:13:52.000Z,29.3
2019-01-24T00:15:07.000Z,29.3
2019-01-24T00:17:07.000Z,29.3
2019-01-24T00:18:07.000Z,29.3
2019-01-24T00:20:07.000Z,29.3
2019-01-24T00:22:07.000Z,29.3
2019-01-24T00:23:07.000Z,29.3
2019-01-24T00:25:07.000Z,29.3
2019-01-24T00:28:07.000Z,29.3
2019-01-24T00:29:52.000Z,29.3
2019-01-24T00:31:07.000Z,29.3
2019-01-24T00:33:07.000Z,29.3
2019-01-24T00:35:07.000Z,29.3
2019-01-24T00:36:52.000Z,29.3
2019-01-24T00:38:07.000Z,29.3
2019-01-24T00:39:08.000Z,29.3
2019-01-24T00:41:08.000Z,29.3
2019-01-24T00:42:08.000Z,29.3
2019-01-24T00:44:08.000Z,29.2
2019-01-24T00:45:08.000Z,29.2
2019-01-24T00:46:08.000Z,29.2
2019-01-24T00:48:08.000Z,29.2
2019-01-24T00:50:08.000Z,29.2
2019-01-24T00:51:08.000Z,29.2
2019-01-24T00:52:08.000Z,29.2
2019-01-24T00:53:08.000Z,29.2
2019-01-24T00:54:08.000Z,29.2
2019-01-24T00:55:08.000Z,29.2
2019-01-24T00:56:08.000Z,29.3
2019-01-24T00:57:08.000Z,29.3
2019-01-24T00:59:08.000Z,29.3
2019-01-24T01:00:08.000Z,29.3
2019-01-24T01:02:08.000Z,29.2
2019-01-24T01:03:52.000Z,29.2
2019-01-24T01:05:08.000Z,29.2
2019-01-24T01:06:08.000Z,29.2
2019-01-24T01:08:08.000Z,29.2
2019-01-24T01:10:08.000Z,29.2
2019-01-24T01:12:08.000Z,29.2
2019-01-24T01:14:08.000Z,29.2
2019-01-24T01:15:08.000Z,29.2
2019-01-24T01:16:52.000Z,29.2
2019-01-24T01:18:08.000Z,29.2
2019-01-24T01:20:08.000Z,29.2
2019-01-24T01:22:08.000Z,29.2
2019-01-24T01:24:08.000Z,29.2
2019-01-24T01:26:08.000Z,29.2
2019-01-24T01:27:08.000Z,29.2
2019-01-24T01:29:08.000Z,29.2
2019-01-24T01:30:08.000Z,29.2
2019-01-24T01:31:08.000Z,29.2
2019-01-24T01:33:08.000Z,29.2
2019-01-24T01:35:08.000Z,29.2
2019-01-24T01:36:08.000Z,29.2
2019-01-24T01:37:08.000Z,29.2
2019-01-24T01:39:08.000Z,29.2
2019-01-24T01:40:08.000Z,29.2
2019-01-24T01:41:08.000Z,29.2
2019-01-24T01:42:08.000Z,29.2
2019-01-24T01:44:08.000Z,29.2
2019-01-24T01:45:08.000Z,29.2
2019-01-24T01:47:08.000Z,29.2
2019-01-24T01:49:08.000Z,29.2
2019-01-24T01:51:08.000Z,29.1
2019-01-24T01:53:08.000Z,29.1
2019-01-24T01:55:08.000Z,29.1
2019-01-24T01:57:08.000Z,29.1
2019-01-24T01:59:08.000Z,29.1
2019-01-24T02:01:08.000Z,29.1
2019-01-24T02:03:08.000Z,29.1
2019-01-24T02:04:08.000Z,29.1
2019-01-24T02:06:08.000Z,29.1
2019-01-24T02:07:08.000Z,29.1
2019-01-24T02:09:08.000Z,29.1
2019-01-24T02:10:08.000Z,29.1
2019-01-24T02:11:08.000Z,29.1
2019-01-24T02:13:08.000Z,29.1
2019-01-24T02:15:08.000Z,29.1
2019-01-24T02:16:08.000Z,29.1
2019-01-24T02:17:08.000Z,29.1
2019-01-24T02:19:08.000Z,29.1
2019-01-24T02:20:08.000Z,29.1
2019-01-24T02:21:08.000Z,29.1
2019-01-24T02:23:08.000Z,29.1
2019-01-24T02:25:08.000Z,29.1
2019-01-24T02:27:08.000Z,29.1
2019-01-24T02:29:08.000Z,29.1
2019-01-24T02:31:08.000Z,29.1
2019-01-24T02:33:08.000Z,29.1
2019-01-24T02:34:08.000Z,29.1
2019-01-24T02:35:08.000Z,29.1
2019-01-24T02:37:08.000Z,29.1
2019-01-24T02:38:08.000Z,29.1
2019-01-24T02:39:08.000Z,29.1
2019-01-24T02:41:08.000Z,29.1
2019-01-24T02:42:08.000Z,29.1
2019-01-24T02:43:08.000Z,29.1
2019-01-24T02:44:08.000Z,29.1
2019-01-24T02:45:08.000Z,29.1
2019-01-24T02:47:08.000Z,29.1
2019-01-24T02:48:08.000Z,29.1
2019-01-24T02:50:08.000Z,29.1
2019-01-24T02:51:08.000Z,29.1
2019-01-24T02:52:08.000Z,29
2019-01-24T02:54:08.000Z,29.1
2019-01-24T02:56:08.000Z,29.1
2019-01-24T02:58:08.000Z,29.1
2019-01-24T03:00:08.000Z,29
2019-01-24T03:01:08.000Z,29
2019-01-24T03:02:08.000Z,29
2019-01-24T03:04:08.000Z,29
2019-01-24T03:06:07.000Z,29
2019-01-24T03:07:08.000Z,29
2019-01-24T03:09:08.000Z,29
2019-01-24T03:10:08.000Z,29
2019-01-24T03:12:08.000Z,29
2019-01-24T03:14:08.000Z,29
2019-01-24T03:15:53.000Z,29
2019-01-24T03:17:08.000Z,29
2019-01-24T03:18:08.000Z,29
2019-01-24T03:19:08.000Z,29
2019-01-24T03:21:08.000Z,29
2019-01-24T03:23:08.000Z,29
2019-01-24T03:25:08.000Z,29
2019-01-24T03:26:53.000Z,29
2019-01-24T03:29:08.000Z,29
2019-01-24T03:30:08.000Z,29
2019-01-24T03:32:08.000Z,29
2019-01-24T03:34:08.000Z,29
2019-01-24T03:35:08.000Z,29
2019-01-24T03:36:08.000Z,29
2019-01-24T03:37:08.000Z,29
2019-01-24T03:39:08.000Z,29
2019-01-24T03:41:08.000Z,29
2019-01-24T03:42:08.000Z,29
2019-01-24T03:44:08.000Z,29
2019-01-24T03:45:08.000Z,29
2019-01-24T03:47:08.000Z,29
2019-01-24T03:48:53.000Z,29
2019-01-24T03:50:08.000Z,29
2019-01-24T03:51:08.000Z,28.9
2019-01-24T03:53:08.000Z,29
2019-01-24T03:55:08.000Z,29
2019-01-24T03:57:08.000Z,29
2019-01-24T03:59:08.000Z,29
2019-01-24T04:00:08.000Z,29
2019-01-24T04:02:08.000Z,29
2019-01-24T04:03:08.000Z,29
2019-01-24T04:05:08.000Z,28.9
2019-01-24T04:07:08.000Z,28.9
2019-01-24T04:08:08.000Z,28.9
2019-01-24T04:10:08.000Z,28.9
2019-01-24T04:12:08.000Z,28.9
2019-01-24T04:13:08.000Z,28.9
2019-01-24T04:14:08.000Z,28.9
2019-01-24T04:16:08.000Z,28.9
2019-01-24T04:18:08.000Z,28.9
2019-01-24T04:20:08.000Z,28.9
2019-01-24T04:22:08.000Z,28.9
2019-01-24T04:23:08.000Z,28.9
2019-01-24T04:25:08.000Z,28.9
2019-01-24T04:27:08.000Z,28.9
2019-01-24T04:28:08.000Z,28.9
2019-01-24T04:30:08.000Z,28.9
2019-01-24T04:31:08.000Z,28.9
2019-01-24T04:33:08.000Z,28.9
2019-01-24T04:35:08.000Z,28.9
2019-01-24T04:36:08.000Z,28.9
2019-01-24T04:38:08.000Z,28.9
2019-01-24T04:39:08.000Z,28.9
2019-01-24T04:40:08.000Z,28.9
2019-01-24T04:42:08.000Z,28.9
2019-01-24T04:43:08.000Z,28.9
2019-01-24T04:44:08.000Z,28.9
2019-01-24T04:46:08.000Z,28.9
2019-01-24T04:48:08.000Z,28.9
2019-01-24T04:49:08.000Z,28.9
2019-01-24T04:51:08.000Z,28.9
2019-01-24T04:52:08.000Z,28.9
2019-01-24T04:53:08.000Z,28.9
2019-01-24T04:54:52.000Z,28.9
2019-01-24T04:56:08.000Z,28.9
2019-01-24T04:57:08.000Z,28.9
2019-01-24T04:59:08.000Z,28.9
2019-01-24T05:00:08.000Z,28.9
2019-01-24T05:02:08.000Z,28.8
2019-01-24T05:04:08.000Z,28.8
2019-01-24T05:05:08.000Z,28.8
2019-01-24T05:07:08.000Z,28.7
2019-01-24T05:08:08.000Z,28.7
2019-01-24T05:09:08.000Z,28.7
2019-01-24T05:10:08.000Z,28.8
2019-01-24T05:12:08.000Z,28.8
2019-01-24T05:14:08.000Z,28.8
2019-01-24T05:15:08.000Z,28.8
2019-01-24T05:17:08.000Z,28.8
2019-01-24T05:18:08.000Z,28.8
2019-01-24T05:20:08.000Z,28.8
2019-01-24T05:21:08.000Z,28.9
2019-01-24T05:23:08.000Z,28.9
2019-01-24T05:25:08.000Z,28.8
2019-01-24T05:26:08.000Z,28.8
2019-01-24T05:27:08.000Z,28.7
2019-01-24T05:28:08.000Z,28.7
2019-01-24T05:29:08.000Z,28.7
2019-01-24T05:31:08.000Z,28.7
2019-01-24T05:33:08.000Z,28.7
2019-01-24T05:35:08.000Z,28.8
2019-01-24T05:36:08.000Z,28.8
2019-01-24T05:37:08.000Z,28.8
2019-01-24T05:39:08.000Z,28.8
2019-01-24T05:41:08.000Z,28.8
2019-01-24T05:42:08.000Z,28.8
2019-01-24T05:43:53.000Z,28.9
2019-01-24T05:45:08.000Z,28.9
2019-01-24T05:47:08.000Z,28.9
2019-01-24T05:48:08.000Z,28.9
2019-01-24T05:50:08.000Z,28.9
2019-01-24T05:52:08.000Z,28.9
2019-01-24T05:53:08.000Z,28.9
2019-01-24T05:54:52.000Z,28.9
2019-01-24T05:56:08.000Z,29
2019-01-24T05:58:08.000Z,29
2019-01-24T06:00:07.000Z,29
2019-01-24T06:02:07.000Z,29
2019-01-24T06:03:07.000Z,29
2019-01-24T06:04:07.000Z,29
2019-01-24T06:06:07.000Z,29
2019-01-24T06:07:07.000Z,29.1
2019-01-24T06:09:07.000Z,29.1
2019-01-24T06:11:07.000Z,29.1
2019-01-24T06:12:07.000Z,29.1
2019-01-24T06:13:07.000Z,29.1
2019-01-24T06:15:07.000Z,29.2
2019-01-24T06:17:07.000Z,29.2
2019-01-24T06:19:07.000Z,29.2
2019-01-24T06:21:07.000Z,29.2
2019-01-24T06:23:07.000Z,29.2
2019-01-24T06:25:07.000Z,29.3
2019-01-24T06:27:07.000Z,29.3
2019-01-24T06:28:07.000Z,29.3
2019-01-24T06:29:07.000Z,29.3
2019-01-24T06:31:07.000Z,29.4
2019-01-24T06:33:07.000Z,29.4
2019-01-24T06:35:07.000Z,29.4
2019-01-24T06:36:07.000Z,29.4
2019-01-24T06:38:07.000Z,29.4
2019-01-24T06:40:07.000Z,29.4
2019-01-24T06:41:07.000Z,29.4
2019-01-24T06:43:07.000Z,29.5
2019-01-24T06:45:07.000Z,29.5
2019-01-24T06:46:07.000Z,29.5
2019-01-24T06:47:07.000Z,29.5
2019-01-24T06:49:07.000Z,29.5
2019-01-24T06:51:07.000Z,29.5
2019-01-24T06:53:07.000Z,29.5
2019-01-24T06:54:07.000Z,29.5
2019-01-24T06:55:07.000Z,29.5
2019-01-24T06:57:07.000Z,29.5
2019-01-24T06:58:07.000Z,29.5
2019-01-24T07:00:07.000Z,29.5
2019-01-24T07:01:52.000Z,29.5
2019-01-24T07:03:07.000Z,29.5
2019-01-24T07:05:07.000Z,29.5
2019-01-24T07:07:07.000Z,29.5
2019-01-24T07:09:07.000Z,29.5
2019-01-24T07:11:07.000Z,29.5
2019-01-24T07:13:07.000Z,29.5
2019-01-24T07:15:07.000Z,29.6
2019-01-24T07:17:07.000Z,29.6
2019-01-24T07:18:07.000Z,29.6
2019-01-24T07:20:07.000Z,29.7
2019-01-24T07:22:07.000Z,29.7
2019-01-24T07:23:07.000Z,29.7
2019-01-24T07:25:07.000Z,29.8
2019-01-24T07:27:07.000Z,29.7
2019-01-24T07:28:52.000Z,29.7
2019-01-24T07:30:07.000Z,29.7
2019-01-24T07:31:07.000Z,29.7
2019-01-24T07:32:52.000Z,29.7
2019-01-24T07:34:07.000Z,29.7
2019-01-24T07:35:07.000Z,29.7
2019-01-24T07:37:07.000Z,29.7
2019-01-24T07:38:07.000Z,29.7
2019-01-24T07:40:07.000Z,29.8
2019-01-24T07:41:07.000Z,29.8
2019-01-24T07:43:07.000Z,29.7
2019-01-24T07:45:07.000Z,29.7
2019-01-24T07:47:07.000Z,29.7
2019-01-24T07:48:07.000Z,29.7
2019-01-24T07:49:07.000Z,29.7
2019-01-24T07:50:52.000Z,29.7
2019-01-24T07:52:07.000Z,29.7
2019-01-24T07:53:07.000Z,29.7
2019-01-24T07:54:07.000Z,29.7
2019-01-24T07:55:07.000Z,29.7
2019-01-24T07:56:07.000Z,29.7
2019-01-24T07:58:07.000Z,29.8
2019-01-24T08:00:07.000Z,29.8
2019-01-24T08:02:07.000Z,29.8
2019-01-24T08:03:07.000Z,29.8
2019-01-24T08:05:07.000Z,29.9
2019-01-24T08:07:07.000Z,29.9
2019-01-24T08:08:08.000Z,29.9
2019-01-24T08:10:08.000Z,29.9
2019-01-24T08:12:08.000Z,29.9
2019-01-24T08:14:08.000Z,30
2019-01-24T08:16:08.000Z,30
2019-01-24T08:18:08.000Z,30
2019-01-24T08:19:08.000Z,30
2019-01-24T08:21:08.000Z,29.9
2019-01-24T08:23:08.000Z,30
2019-01-24T08:25:08.000Z,30
2019-01-24T08:27:08.000Z,30
2019-01-24T08:29:08.000Z,30
2019-01-24T08:31:08.000Z,30
2019-01-24T08:32:08.000Z,30
2019-01-24T08:33:08.000Z,30
2019-01-24T08:35:08.000Z,30
2019-01-24T08:37:08.000Z,30
2019-01-24T08:39:08.000Z,30
2019-01-24T08:41:08.000Z,30.1
2019-01-24T08:43:08.000Z,30.1
2019-01-24T08:45:08.000Z,30.1
2019-01-24T08:47:08.000Z,30.1
2019-01-24T08:48:08.000Z,30.1
2019-01-24T08:50:08.000Z,30.1
2019-01-24T08:51:08.000Z,30.1
2019-01-24T08:52:08.000Z,30.1
2019-01-24T08:54:08.000Z,30.1
2019-01-24T08:56:08.000Z,30.1
2019-01-24T08:57:08.000Z,30.2
2019-01-24T08:59:08.000Z,30.2
2019-01-24T09:01:08.000Z,30.2
2019-01-24T09:03:08.000Z,30.2
2019-01-24T09:04:08.000Z,30.2
2019-01-24T09:06:08.000Z,30.2
2019-01-24T09:07:08.000Z,30.3
2019-01-24T09:09:08.000Z,30.3
2019-01-24T09:11:08.000Z,30.3
2019-01-24T09:12:08.000Z,30.3
2019-01-24T09:13:53.000Z,30.3
2019-01-24T09:15:08.000Z,30.3
2019-01-24T09:17:08.000Z,30.3
2019-01-24T09:18:08.000Z,30.4
2019-01-24T09:20:08.000Z,30.4
2019-01-24T09:21:08.000Z,30.4
2019-01-24T09:22:08.000Z,30.4
2019-01-24T09:24:08.000Z,30.4
2019-01-24T09:25:08.000Z,30.4
2019-01-24T09:27:08.000Z,30.4
2019-01-24T09:28:08.000Z,30.4
2019-01-24T09:30:08.000Z,30.4
2019-01-24T09:32:08.000Z,30.5
2019-01-24T09:33:08.000Z,30.5
2019-01-24T09:34:08.000Z,30.5
2019-01-24T09:36:08.000Z,30.5
2019-01-24T09:38:08.000Z,30.5
2019-01-24T09:39:08.000Z,30.5
2019-01-24T09:40:53.000Z,30.6
2019-01-24T09:42:08.000Z,30.6
2019-01-24T09:43:08.000Z,30.6
2019-01-24T09:44:53.000Z,30.6
2019-01-24T09:46:08.000Z,30.6
2019-01-24T09:48:08.000Z,30.6
2019-01-24T09:50:08.000Z,30.7
2019-01-24T09:52:08.000Z,30.7
2019-01-24T09:54:08.000Z,30.7
2019-01-24T09:56:08.000Z,30.8
2019-01-24T09:57:08.000Z,30.8
2019-01-24T09:58:08.000Z,30.8
2019-01-24T10:00:08.000Z,30.8
2019-01-24T10:02:08.000Z,30.8
2019-01-24T10:04:08.000Z,30.8
2019-01-24T10:06:08.000Z,30.9
2019-01-24T10:07:08.000Z,30.9
2019-01-24T10:08:08.000Z,30.9
2019-01-24T10:10:08.000Z,30.9
2019-01-24T10:11:08.000Z,30.9
2019-01-24T10:12:53.000Z,30.9
2019-01-24T10:14:08.000Z,30.9
2019-01-24T10:16:08.000Z,30.9
2019-01-24T10:17:53.000Z,31
2019-01-24T10:19:08.000Z,31
2019-01-24T10:21:08.000Z,31
2019-01-24T10:23:08.000Z,31
2019-01-24T10:25:08.000Z,31
2019-01-24T10:26:08.000Z,31
2019-01-24T10:28:08.000Z,31
2019-01-24T10:29:08.000Z,31
2019-01-24T10:30:08.000Z,31
2019-01-24T10:32:08.000Z,31
2019-01-24T10:33:08.000Z,31
2019-01-24T10:35:08.000Z,31
2019-01-24T10:37:08.000Z,31
2019-01-24T10:38:08.000Z,31
2019-01-24T10:40:08.000Z,31
2019-01-24T10:42:08.000Z,31
2019-01-24T10:44:08.000Z,31
2019-01-24T10:46:08.000Z,31
2019-01-24T10:47:08.000Z,31
2019-01-24T10:49:08.000Z,31
2019-01-24T10:50:08.000Z,31.1
2019-01-24T10:52:08.000Z,31.1
2019-01-24T10:54:08.000Z,31.1
2019-01-24T10:56:08.000Z,31.1
2019-01-24T10:58:08.000Z,31.1
2019-01-24T10:59:08.000Z,31.1
2019-01-24T11:00:08.000Z,31.1
2019-01-24T11:01:08.000Z,31.2
2019-01-24T11:03:08.000Z,31.2
2019-01-24T11:05:08.000Z,31.2
2019-01-24T11:07:08.000Z,31.2
2019-01-24T11:08:08.000Z,31.2
2019-01-24T11:09:08.000Z,31.2
2019-01-24T11:10:08.000Z,31.2
2019-01-24T11:12:08.000Z,31.2
2019-01-24T11:13:08.000Z,31.1
2019-01-24T11:14:08.000Z,31.1
2019-01-24T11:15:08.000Z,31.1
2019-01-24T11:16:08.000Z,31.1
2019-01-24T11:18:08.000Z,31.1
2019-01-24T11:20:08.000Z,31.2
2019-01-24T11:22:07.000Z,31.2
2019-01-24T11:24:07.000Z,31.2
2019-01-24T11:26:07.000Z,31.1
2019-01-24T11:27:52.000Z,31.2
2019-01-24T11:29:07.000Z,31.2
2019-01-24T11:30:07.000Z,31.2
2019-01-24T11:32:07.000Z,31.2
2019-01-24T11:33:07.000Z,31.1
2019-01-24T11:35:07.000Z,31.2
2019-01-24T11:36:52.000Z,31.2
2019-01-24T11:38:07.000Z,31.1
2019-01-24T11:39:07.000Z,31.1
2019-01-24T11:40:07.000Z,31.1
2019-01-24T11:41:07.000Z,31.1
2019-01-24T11:43:07.000Z,31.1
2019-01-24T11:45:07.000Z,31.1
2019-01-24T11:46:07.000Z,31.1
2019-01-24T11:48:07.000Z,31.1
2019-01-24T11:49:07.000Z,31.1
2019-01-24T11:51:07.000Z,31.2
2019-01-24T11:53:07.000Z,31.2
2019-01-24T11:54:07.000Z,31.2
2019-01-24T11:55:07.000Z,31.2
2019-01-24T11:56:52.000Z,31.2
2019-01-24T11:58:07.000Z,31.2
2019-01-24T12:00:07.000Z,31.2
2019-01-24T12:01:07.000Z,31.2
2019-01-24T12:03:07.000Z,31.2
2019-01-24T12:04:07.000Z,31.2
2019-01-24T12:05:07.000Z,31.2
2019-01-24T12:07:07.000Z,31.3
2019-01-24T12:09:07.000Z,31.3
2019-01-24T12:11:07.000Z,31.3
2019-01-24T12:12:07.000Z,31.2
2019-01-24T12:14:07.000Z,31.3
2019-01-24T12:15:07.000Z,31.3
2019-01-24T12:16:52.000Z,31.4
2019-01-24T12:18:07.000Z,31.4
2019-01-24T12:20:07.000Z,31.4
2019-01-24T12:21:07.000Z,31.4
2019-01-24T12:23:07.000Z,31.4
2019-01-24T12:24:52.000Z,31.3
2019-01-24T12:26:07.000Z,31.3
2019-01-24T12:28:07.000Z,31.4
2019-01-24T12:30:07.000Z,31.4
2019-01-24T12:31:07.000Z,31.4
2019-01-24T12:32:07.000Z,31.4
2019-01-24T12:33:07.000Z,31.4
2019-01-24T12:35:07.000Z,31.4
2019-01-24T12:36:07.000Z,31.4
2019-01-24T12:37:07.000Z,31.4
2019-01-24T12:39:07.000Z,31.4
2019-01-24T12:40:07.000Z,31.4
2019-01-24T12:42:07.000Z,31.4
2019-01-24T12:43:07.000Z,31.4
2019-01-24T12:44:52.000Z,31.4
2019-01-24T12:46:07.000Z,31.4
2019-01-24T12:48:07.000Z,31.4
2019-01-24T12:50:07.000Z,31.4
2019-01-24T12:51:07.000Z,31.4
2019-01-24T12:53:07.000Z,31.4
2019-01-24T12:55:07.000Z,31.4
2019-01-24T12:56:07.000Z,31.3
2019-01-24T12:58:07.000Z,31.3
2019-01-24T13:00:07.000Z,31.3
2019-01-24T13:02:07.000Z,31.3
2019-01-24T13:03:07.000Z,31.3
2019-01-24T13:04:07.000Z,31.3
2019-01-24T13:06:07.000Z,31.4
2019-01-24T13:07:07.000Z,31.4
2019-01-24T13:09:07.000Z,31.4
2019-01-24T13:10:07.000Z,31.4
2019-01-24T13:12:07.000Z,31.4
2019-01-24T13:14:07.000Z,31.4
2019-01-24T13:16:07.000Z,31.4
2019-01-24T13:18:07.000Z,31.4
2019-01-24T13:20:07.000Z,31.4
2019-01-24T13:21:08.000Z,31.4
2019-01-24T13:23:07.000Z,31.5
2019-01-24T13:25:07.000Z,30.4
2019-01-24T13:26:07.000Z,29.7
2019-01-24T13:27:08.000Z,29.1
2019-01-24T13:29:08.000Z,28
2019-01-24T13:30:08.000Z,27.7
2019-01-24T13:31:08.000Z,27.5
2019-01-24T13:33:08.000Z,27.7
2019-01-24T13:35:08.000Z,28.1
2019-01-24T13:37:08.000Z,28.5
2019-01-24T13:39:08.000Z,28.9
2019-01-24T13:41:08.000Z,29.1
2019-01-24T13:42:08.000Z,29.3
2019-01-24T13:44:08.000Z,29.5
2019-01-24T13:46:08.000Z,29.7
2019-01-24T13:48:08.000Z,29.8
2019-01-24T13:49:08.000Z,29.9
2019-01-24T13:51:08.000Z,30.1
2019-01-24T13:53:08.000Z,30.2
2019-01-24T13:54:08.000Z,30.3
2019-01-24T13:55:08.000Z,30.3
2019-01-24T13:57:08.000Z,30.4
2019-01-24T13:59:08.000Z,30.4
2019-01-24T14:01:08.000Z,30.5
2019-01-24T14:02:08.000Z,30.5
2019-01-24T14:04:08.000Z,30.6
2019-01-24T14:05:53.000Z,30.7
2019-01-24T14:07:08.000Z,30.7
2019-01-24T14:08:08.000Z,30.7
2019-01-24T14:10:08.000Z,30.8
2019-01-24T14:12:08.000Z,30.8
2019-01-24T14:13:08.000Z,30.8
2019-01-24T14:14:08.000Z,30.8
2019-01-24T14:16:08.000Z,30.9
2019-01-24T14:17:08.000Z,30.9
2019-01-24T14:19:08.000Z,30.9
2019-01-24T14:21:08.000Z,31
2019-01-24T14:23:08.000Z,31
2019-01-24T14:24:08.000Z,31
2019-01-24T14:26:08.000Z,31
2019-01-24T14:27:08.000Z,31
2019-01-24T14:29:08.000Z,31
2019-01-24T14:31:08.000Z,31
2019-01-24T14:32:08.000Z,31
2019-01-24T14:33:07.000Z,31
2019-01-24T14:35:07.000Z,30.9
2019-01-24T14:37:07.000Z,30.9
2019-01-24T14:38:07.000Z,30.9
2019-01-24T14:40:07.000Z,30.9
2019-01-24T14:42:07.000Z,30.9
2019-01-24T14:44:07.000Z,31
2019-01-24T14:46:07.000Z,30.9
2019-01-24T14:47:07.000Z,31
2019-01-24T14:48:07.000Z,31
2019-01-24T14:50:07.000Z,31
2019-01-24T14:52:07.000Z,31
2019-01-24T14:54:07.000Z,31
2019-01-24T14:56:07.000Z,31
2019-01-24T14:57:07.000Z,31
2019-01-24T14:59:07.000Z,31
2019-01-24T15:01:07.000Z,31
2019-01-24T15:02:07.000Z,31
2019-01-24T15:03:07.000Z,31
2019-01-24T15:04:07.000Z,31
2019-01-24T15:06:07.000Z,31
2019-01-24T15:07:07.000Z,31
2019-01-24T15:08:07.000Z,31
2019-01-24T15:10:07.000Z,31
2019-01-24T15:11:52.000Z,31
2019-01-24T15:13:07.000Z,30.9
2019-01-24T15:14:07.000Z,30.9
2019-01-24T15:15:07.000Z,30.9
2019-01-24T15:17:07.000Z,30.9
2019-01-24T15:18:07.000Z,30.9
2019-01-24T15:20:07.000Z,30.9
2019-01-24T15:22:07.000Z,31
2019-01-24T15:23:07.000Z,31
2019-01-24T15:25:07.000Z,30.9
2019-01-24T15:26:07.000Z,30.9
2019-01-24T15:27:07.000Z,30.9
2019-01-24T15:28:07.000Z,30.9
2019-01-24T15:30:07.000Z,30.9
2019-01-24T15:32:07.000Z,30.9
2019-01-24T15:33:52.000Z,30.9
2019-01-24T15:35:07.000Z,30.9
2019-01-24T15:36:07.000Z,30.8
2019-01-24T15:37:07.000Z,30.8
2019-01-24T15:39:08.000Z,30.8
2019-01-24T15:40:08.000Z,30.8
2019-01-24T15:42:08.000Z,30.8
2019-01-24T15:43:08.000Z,30.8
2019-01-24T15:45:08.000Z,30.8
2019-01-24T15:47:08.000Z,30.8
2019-01-24T15:48:08.000Z,30.8
2019-01-24T15:50:08.000Z,30.8
2019-01-24T15:51:08.000Z,30.8
2019-01-24T15:52:08.000Z,30.8
2019-01-24T15:54:08.000Z,30.8
2019-01-24T15:56:08.000Z,30.8
2019-01-24T15:57:08.000Z,30.8
2019-01-24T15:59:08.000Z,30.8
2019-01-24T16:00:08.000Z,30.8
2019-01-24T16:02:08.000Z,30.8
2019-01-24T16:03:08.000Z,30.8
2019-01-24T16:04:53.000Z,30.8
2019-01-24T16:06:08.000Z,30.8
2019-01-24T16:08:08.000Z,30.8
2019-01-24T16:10:08.000Z,30.7
2019-01-24T16:11:08.000Z,30.8
2019-01-24T16:13:08.000Z,30.8
2019-01-24T16:15:08.000Z,30.8
2019-01-24T16:17:08.000Z,30.8
2019-01-24T16:19:08.000Z,30.7
2019-01-24T16:21:08.000Z,30.7
2019-01-24T16:23:08.000Z,30.7
2019-01-24T16:25:08.000Z,30.7
2019-01-24T16:26:08.000Z,30.7
2019-01-24T16:28:08.000Z,30.7
2019-01-24T16:30:08.000Z,30.7
2019-01-24T16:32:08.000Z,30.7
2019-01-24T16:33:08.000Z,30.7
2019-01-24T16:35:08.000Z,30.8
2019-01-24T16:37:08.000Z,30.8
2019-01-24T16:39:08.000Z,30.7
2019-01-24T16:41:08.000Z,30.8
2019-01-24T16:43:08.000Z,30.7
2019-01-24T16:45:08.000Z,30.7
2019-01-24T16:47:08.000Z,30.7
2019-01-24T16:49:08.000Z,30.8
2019-01-24T16:51:08.000Z,30.7
2019-01-24T16:53:08.000Z,30.7
2019-01-24T16:55:08.000Z,30.8
2019-01-24T16:56:52.000Z,30.7
2019-01-24T16:58:08.000Z,30.7
2019-01-24T17:00:08.000Z,30.7
2019-01-24T17:02:08.000Z,30.7
2019-01-24T17:03:08.000Z,30.7
2019-01-24T17:05:08.000Z,30.7
2019-01-24T17:07:08.000Z,30.7
2019-01-24T17:08:08.000Z,30.7
2019-01-24T17:09:08.000Z,30.7
2019-01-24T17:10:52.000Z,30.7
2019-01-24T17:12:08.000Z,30.7
2019-01-24T17:14:08.000Z,30.7
2019-01-24T17:15:08.000Z,30.7
2019-01-24T17:17:08.000Z,30.7
2019-01-24T17:18:08.000Z,30.6
2019-01-24T17:19:08.000Z,30.6
2019-01-24T17:20:08.000Z,30.6
2019-01-24T17:21:08.000Z,30.6
2019-01-24T17:22:08.000Z,30.6
2019-01-24T17:24:08.000Z,30.6
2019-01-24T17:25:08.000Z,30.6
2019-01-24T17:27:08.000Z,30.6
2019-01-24T17:28:08.000Z,30.6
2019-01-24T17:29:08.000Z,30.6
2019-01-24T17:31:08.000Z,30.6
2019-01-24T17:32:08.000Z,30.6
2019-01-24T17:33:08.000Z,30.6
2019-01-24T17:34:52.000Z,30.6
2019-01-24T17:36:08.000Z,30.6
2019-01-24T17:37:52.000Z,30.6
2019-01-24T17:39:08.000Z,30.6
2019-01-24T17:41:08.000Z,30.6
2019-01-24T17:42:08.000Z,30.6
2019-01-24T17:44:08.000Z,30.5
2019-01-24T17:46:08.000Z,30.5
2019-01-24T17:47:08.000Z,30.5
2019-01-24T17:48:08.000Z,30.5
2019-01-24T17:50:08.000Z,30.5
2019-01-24T17:52:08.000Z,30.5
2019-01-24T17:53:52.000Z,30.5
2019-01-24T17:55:08.000Z,30.5
2019-01-24T17:56:08.000Z,30.5
2019-01-24T17:58:08.000Z,30.5
2019-01-24T17:59:52.000Z,30.5
2019-01-24T18:01:08.000Z,30.5
2019-01-24T18:02:08.000Z,30.5
2019-01-24T18:04:08.000Z,30.5
2019-01-24T18:05:08.000Z,30.4
2019-01-24T18:07:08.000Z,30.4
2019-01-24T18:08:53.000Z,30.4
2019-01-24T18:10:08.000Z,30.4
2019-01-24T18:12:08.000Z,30.4
2019-01-24T18:13:08.000Z,30.4
2019-01-24T18:15:08.000Z,30.4
2019-01-24T18:17:08.000Z,30.4
2019-01-24T18:19:08.000Z,30.4
2019-01-24T18:21:08.000Z,30.4
2019-01-24T18:22:08.000Z,30.4
2019-01-24T18:24:08.000Z,30.4
2019-01-24T18:25:08.000Z,30.3
2019-01-24T18:27:08.000Z,30.4
2019-01-24T18:29:08.000Z,30.4
2019-01-24T18:31:08.000Z,30.4
2019-01-24T18:33:08.000Z,30.3
2019-01-24T18:34:08.000Z,30.3
2019-01-24T18:36:08.000Z,30.3
2019-01-24T18:38:08.000Z,30.3
2019-01-24T18:39:08.000Z,30.3
2019-01-24T18:41:08.000Z,30.3
2019-01-24T18:42:08.000Z,30.3
2019-01-24T18:43:08.000Z,30.3
2019-01-24T18:44:08.000Z,30.3
2019-01-24T18:45:08.000Z,30.3
2019-01-24T18:47:08.000Z,30.3
2019-01-24T18:49:08.000Z,30.3
2019-01-24T18:50:08.000Z,30.3
2019-01-24T18:52:08.000Z,30.3
2019-01-24T18:54:08.000Z,30.3
2019-01-24T18:55:08.000Z,30.3
2019-01-24T18:56:08.000Z,30.3
2019-01-24T18:58:08.000Z,30.3
2019-01-24T18:59:08.000Z,30.3
2019-01-24T19:01:08.000Z,30.3
2019-01-24T19:03:08.000Z,30.3
2019-01-24T19:05:08.000Z,30.2
2019-01-24T19:06:08.000Z,30.2
2019-01-24T19:07:53.000Z,30.2
2019-01-24T19:09:08.000Z,30.2
2019-01-24T19:10:08.000Z,30.2
2019-01-24T19:11:08.000Z,30.2
2019-01-24T19:12:53.000Z,30.2
2019-01-24T19:14:08.000Z,30.2
2019-01-24T19:16:08.000Z,30.2
2019-01-24T19:18:08.000Z,30.2
2019-01-24T19:20:08.000Z,30.2
2019-01-24T19:21:08.000Z,30.2
2019-01-24T19:23:08.000Z,30.2
2019-01-24T19:25:08.000Z,30.2
2019-01-24T19:27:08.000Z,30.2
2019-01-24T19:29:08.000Z,30.2
2019-01-24T19:31:08.000Z,30.1
2019-01-24T19:32:08.000Z,30.1
2019-01-24T19:34:08.000Z,30.1
2019-01-24T19:35:08.000Z,30.1
2019-01-24T19:37:08.000Z,30.1
2019-01-24T19:38:08.000Z,30.1
2019-01-24T19:39:53.000Z,30.1
2019-01-24T19:41:08.000Z,30.1
2019-01-24T19:42:53.000Z,30.1
2019-01-24T19:44:08.000Z,30.1
2019-01-24T19:46:08.000Z,30.1
2019-01-24T19:47:08.000Z,30.1
2019-01-24T19:48:08.000Z,30.1
2019-01-24T19:50:08.000Z,30.1
2019-01-24T19:52:08.000Z,30.1
2019-01-24T19:53:53.000Z,30.1
2019-01-24T19:55:08.000Z,30.1
2019-01-24T19:56:53.000Z,30.1
2019-01-24T19:58:08.000Z,30
2019-01-24T19:59:08.000Z,30
2019-01-24T20:00:08.000Z,30
2019-01-24T20:02:08.000Z,30
2019-01-24T20:03:08.000Z,30
2019-01-24T20:05:08.000Z,30
2019-01-24T20:06:08.000Z,30
2019-01-24T20:07:53.000Z,30
2019-01-24T20:08:53.000Z,30
2019-01-24T20:10:08.000Z,29.9
2019-01-24T20:11:08.000Z,29.9
2019-01-24T20:13:08.000Z,29.9
2019-01-24T20:14:08.000Z,29.9
2019-01-24T20:16:08.000Z,29.9
2019-01-24T20:18:08.000Z,29.9
2019-01-24T20:20:08.000Z,29.9
2019-01-24T20:21:08.000Z,29.9
2019-01-24T20:22:08.000Z,29.9
2019-01-24T20:24:08.000Z,29.9
2019-01-24T20:25:08.000Z,29.9
2019-01-24T20:26:08.000Z,29.9
2019-01-24T20:28:08.000Z,29.8
2019-01-24T20:30:08.000Z,29.8
2019-01-24T20:31:08.000Z,29.8
2019-01-24T20:32:53.000Z,29.8
2019-01-24T20:34:08.000Z,29.8
2019-01-24T20:35:08.000Z,29.8
2019-01-24T20:36:08.000Z,29.8
2019-01-24T20:37:08.000Z,29.8
2019-01-24T20:39:08.000Z,29.8
2019-01-24T20:41:08.000Z,29.8
2019-01-24T20:43:08.000Z,29.7
2019-01-24T20:45:08.000Z,29.8
2019-01-24T20:47:08.000Z,29.7
2019-01-24T20:49:08.000Z,29.7
2019-01-24T20:50:08.000Z,29.7
2019-01-24T20:52:08.000Z,29.7
2019-01-24T20:53:08.000Z,29.7
2019-01-24T20:55:08.000Z,29.7
2019-01-24T20:57:08.000Z,29.6
2019-01-24T20:58:53.000Z,29.7
2019-01-24T21:00:08.000Z,29.7
2019-01-24T21:01:08.000Z,29.7
2019-01-24T21:03:08.000Z,29.7
2019-01-24T21:04:54.000Z,29.7
2019-01-24T21:06:08.000Z,29.7
2019-01-24T21:07:08.000Z,29.7